Hovedside
METAR-TAF:

METAR-TAF

Lufthavner :

Vojens, Danmark

breddegrad: 55-14N, lengdegrad: 009-16E, høyde over havet: 43 m

Gjeldene værobservasjon

Denne rapporten ble laget for 27 minutter siden, klokken 18:50 UTC
Vind 4 kt fra Øst-sørøst
Temperatur 15°C
Luftfuktighet 63%
Trykk 1026 hPa
Sikt 10 km eller mer
ingen skyer under 1500 m og ingen bygeskyer

METAR: EKSP 201850Z 12004KT CAVOK 15/08 Q1026 RMK SKC

Tid: 21:17 (19:17 UTC)

Varsel

Denne rapporten ble laget for 1 time og 53 minutter siden, klokken 17:24 UTC
Varsel gyldig fra 20. klokken 18 UTC til 21. klokken 18 UTC
Vind 9 kt fra Øst-sørøst
Sikt 10 km eller mer
Få skyer i en høyde av 20000 ft
Blir
fra 21. klokken 09 UTC til 21. klokken 12 UTC
Vind 13 kt fra Sørøst

TAF: EKSP 201724Z 2018/2118 11009KT 9999 FEW200 BECMG 2109/2112 13013KT

Værobservasjoner og værvarsel for over 4000 flyplasser (METAR- og TAF-rapporter).

Tilgjengelige stasjoner er representert av de røde og gule prikkene på kartet.

Hold musepekeren over prikken for å se navnet på stasjonen.

Klikk så for å se værobservasjoner og -varsler.

For å forandre kartet kan du klikke på den grønne knappen med svart kryss for å zoome inn, på den grønne knappen med strek for å zoome ut, eller på de grønne pilene for å se tilstøtende kart.


METAR-TAF: